Terminal Aerodrome Forecast
Issued by NWS Dodge City, KS

Home | Current Version | Previous Version | Graphics & Text | Print | Product List | Glossary Off
Versions: 1 2 3 4 5 6 7 8 9 10 11 12 13 14 15 16 17 18 19 20 21 22 23 24 25 26 27 28 29 30 31 32 33 34 35

000
FTUS43 KDDC 010903 AAB
TAFDDC
TAF AMD
KDDC 010903Z 0109/0206 32018G28KT P6SM OVC018
     FM011500 36017G27KT P6SM OVC020
     FM020000 36010KT P6SM VCSH OVC020
     FM020300 34006KT P6SM -SHRA OVC010=

USA.gov is the U.S. government's official web portal to all federal, state and local government web resources and services.